• Join FlightAware (Why Join?)
  • Login
  • US Flag 
12:38AM EST


 

Airport Tracker/Info


-or-


 

Live Flight TrackerFlight Track Log ✈ N2193W ✈ 08-Aug-2013 ✈ KPWG - TS15

Flight Track Log - Related Links

Times and Time Zones

All times are in EDT time to prevent confusion due to time zone crossing. See the N2193W flight status page for this flight to view local times or setup timezone preferences in your user account.

Time Position Orientation Groundspeed Altitude Reporting Facility
EDT Latitude Longitude Course Direction KTS MPH feet Rate Location/Type
09:29AM 31.4089 -97.8467 258° West 117 135 6,900  Level Houston Center
09:30AM 31.4022 -97.8831 258° West 111 128 7,200 300 Climbing Fort Worth Center
09:31AM 31.3958 -97.9219 259° West 112 129 7,600 300 Climbing Fort Worth Center
09:32AM 31.3894 -97.9583 258° West 114 131 7,900 300 Climbing Fort Worth Center
09:33AM 31.3811 -98.0022 257° West 115 132 8,300 240 Climbing Fort Worth Center
09:34AM 31.3767 -98.0436 263° West 121 139 8,500 60 Climbing Fort Worth Center
09:35AM 31.3681 -98.0872 257° West 133 153 8,500  Level Fort Worth Center
09:36AM 31.3511 -98.1358 248° West 144 166 8,500  Level Fort Worth Center
09:37AM 31.3425 -98.1650 251° West 144 166 8,500  Level Fort Worth Center
09:38AM 31.3339 -98.2086 257° West 140 161 8,500  Level Fort Worth Center
09:39AM 31.3253 -98.2547 258° West 139 160 8,500  Level Fort Worth Center
09:40AM 31.3125 -98.3008 252° West 140 161 8,500  Level Fort Worth Center
09:42AM 31.2969 -98.3936 259° West 139 160 8,500  Level Houston Center
09:43AM 31.2869 -98.4375 255° West 140 161 8,500  Level Houston Center
09:44AM 31.2778 -98.4822 257° West 140 161 8,500  Level Houston Center
09:45AM 31.2681 -98.5261 255° West 140 161 8,500  Level Houston Center
09:46AM 31.2592 -98.5708 257° West 139 160 8,500  Level Houston Center
09:47AM 31.2486 -98.6169 255° West 143 165 8,500  Level Houston Center
09:48AM 31.2389 -98.6700 258° West 143 165 8,500  Level Houston Center
09:49AM 31.2278 -98.7153 254° West 143 165 8,500  Level Houston Center
09:50AM 31.2164 -98.7600 253° West 143 165 8,500  Level Houston Center
09:51AM 31.2078 -98.8047 257° West 142 163 8,500  Level Houston Center
09:52AM 31.1986 -98.8511 257° West 144 166 8,500  Level Houston Center
09:54AM 31.1889 -98.8975 256° West 145 167 8,500  Level Houston Center
09:55AM 31.1778 -98.9417 254° West 141 162 8,500  Level Houston Center
09:56AM 31.1667 -98.9947 256° West 143 165 8,500  Level Houston Center
09:57AM 31.1569 -99.0406 256° West 145 167 8,500  Level Houston Center
09:58AM 31.1469 -99.0858 256° West 143 165 8,500  Level Houston Center
09:59AM 31.1378 -99.1314 257° West 143 165 8,500  Level Houston Center
10:00AM 31.1278 -99.1736 255° West 143 165 8,500  Level Houston Center
10:01AM 31.1181 -99.2181 256° West 142 163 8,500  Level Houston Center
10:02AM 31.1058 -99.2731 255° West 146 168 8,500  Level Houston Center
10:03AM 31.0950 -99.3189 255° West 147 169 8,500  Level Houston Center
10:04AM 31.0847 -99.3625 255° West 142 163 8,500  Level Houston Center
10:05AM 31.0767 -99.4064 258° West 141 162 8,500  Level Houston Center
10:06AM 31.0656 -99.4506 254° West 141 162 8,500 -60 Level Houston Center
10:07AM 31.0547 -99.5056 257° West 145 167 8,400 -60 Descending Houston Center
10:08AM 31.0436 -99.5486 253° West 141 162 8,400  Level Houston Center
10:09AM 31.0342 -99.5925 256° West 140 161 8,400  Level Houston Center
10:10AM 31.0250 -99.6364 256° West 145 167 8,400  Level Houston Center
10:11AM 31.0147 -99.6794 254° West 144 166 8,400  Level Houston Center
10:12AM 31.0042 -99.7247 255° West 149 171 8,400  Level Houston Center
10:13AM 30.9936 -99.7778 257° West 145 167 8,400  Level Houston Center
10:14AM 30.9817 -99.8178 251° West 135 155 8,500  Climbing Houston Center
10:15AM 30.9717 -99.8619 255° West 140 161 8,400  Descending Houston Center
10:16AM 30.9622 -99.9072 256° West 142 163 8,500  Climbing Houston Center
10:17AM 30.9514 -99.9511 254° West 143 165 8,500  Level Houston Center
10:18AM 30.9431 -99.9947 257° West 141 162 8,500 -60 Level Houston Center
10:19AM 30.9303 -100.0475 254° West 144 166 8,400 -60 Descending Houston Center
10:20AM 30.9203 -100.0900 255° West 158 182 8,400  Level Houston Center
10:21AM 30.9111 -100.1333 256° West 141 162 8,500  Climbing Houston Center
10:22AM 30.9008 -100.1772 255° West 140 161 8,500  Level Houston Center
10:24AM 30.8889 -100.2256 254° West 142 163 8,500  Level Houston Center
10:25AM 30.8750 -100.2908 256° West 142 163 8,500  Level Houston Center
10:26AM 30.8650 -100.3336 255° West 139 160 8,500 -60 Level Houston Center
10:27AM 30.8553 -100.3753 255° West 136 157 8,400  Descending Houston Center
10:28AM 30.8456 -100.4189 255° West 138 159 8,500  Climbing Houston Center
10:29AM 30.8367 -100.4603 256° West 135 155 8,500  Level Houston Center
10:30AM 30.8236 -100.5119 254° West 138 159 8,500  Level Houston Center
10:31AM 30.8147 -100.5539 256° West 136 157 8,500 -60 Level Houston Center
10:32AM 30.8044 -100.5975 255° West 139 160 8,400 -60 Descending Houston Center
10:33AM 30.7942 -100.6397 254° West 139 160 8,400  Level Houston Center
10:34AM 30.7842 -100.6833 255° West 140 161 8,400  Level Houston Center
10:35AM 30.7722 -100.7325 254° West 138 159 8,400  Level Houston Center
10:36AM 30.7631 -100.7753 256° West 138 159 8,400  Level Houston Center
10:37AM 30.7533 -100.8181 255° West 139 160 8,400  Level Houston Center
10:38AM 30.7425 -100.8622 254° West 142 163 8,400  Level Houston Center
10:39AM 30.7325 -100.9033 254° West 138 159 8,400  Level Houston Center
10:41AM 30.7219 -100.9450 254° West 137 158 8,400  Level Houston Center
10:42AM 30.7103 -100.9956 255° West 136 157 8,400  Level Houston Center
10:43AM 30.6997 -101.0386 254° West 140 161 8,400  Level Houston Center
10:44AM 30.6903 -101.0814 256° West 139 160 8,400  Level Houston Center
10:45AM 30.6811 -101.1242 256° West 141 162 8,400  Level Houston Center
10:46AM 30.6703 -101.1650 253° West 138 159 8,400  Level Houston Center
10:47AM 30.6506 -101.2125 244° Southwest 189 217 8,400  Level Houston Center
10:48AM 30.6469 -101.2572 265° West 135 155 8,400  Level Houston Center
10:49AM 30.6375 -101.2989 255° West 134 154 8,400  Level Houston Center
10:50AM 30.6278 -101.3397 255° West 134 154 8,400  Level Houston Center
10:51AM 30.6167 -101.3814 253° West 134 154 8,400  Level Houston Center
10:52AM 30.6081 -101.4231 257° West 134 154 8,400  Level Houston Center
10:53AM 30.5953 -101.4731 253° West 135 155 8,400  Level Houston Center
10:54AM 30.5861 -101.5133 255° West 131 151 8,400  Level Houston Center
10:55AM 30.5756 -101.5550 254° West 133 153 8,400  Level Houston Center
10:56AM 30.5661 -101.5964 255° West 132 152 8,400  Level Houston Center
10:57AM 30.5542 -101.6444 254° West 134 154 8,400  Level Houston Center
10:58AM 30.5439 -101.6872 254° West 136 157 8,400  Level Houston Center
10:59AM 30.5328 -101.7286 253° West 135 155 8,400  Level Houston Center
11:00AM 30.5233 -101.7706 255° West 133 153 8,400  Level Houston Center
11:01AM 30.5131 -101.8131 254° West 135 155 8,400  Level Houston Center
11:02AM 30.5028 -101.8556 254° West 135 155 8,400  Level Houston Center
11:03AM 30.4911 -101.9050 255° West 133 153 8,400  Level Houston Center
11:04AM 30.4808 -101.9469 254° West 133 153 8,400  Level Houston Center
11:05AM 30.4703 -101.9881 253° West 132 152 8,400  Level Houston Center
11:06AM 30.4600 -102.0289 254° West 133 153 8,400  Level Houston Center
11:07AM 30.4506 -102.0706 255° West 132 152 8,400  Level Houston Center
11:08AM 30.4411 -102.1114 255° West 132 152 8,400  Level Houston Center
11:09AM 30.4283 -102.1594 253° West 130 150 8,400  Level Houston Center
11:11AM 30.4189 -102.1994 255° West 128 147 8,400  Level Houston Center
11:12AM 30.4094 -102.2400 255° West 129 148 8,400  Level Houston Center
11:13AM 30.3983 -102.2797 252° West 129 148 8,400  Level Houston Center
11:14AM 30.3886 -102.3181 254° West 126 145 8,400  Level Houston Center
11:15AM 30.3803 -102.3578 256° West 126 145 8,400  Level Houston Center
11:16AM 30.3675 -102.4044 252° West 127 146 8,400  Level Houston Center
11:17AM 30.3581 -102.4436 254° West 126 145 8,400  Level Houston Center
11:18AM 30.3486 -102.4844 255° West 128 147 8,400  Level Houston Center
11:19AM 30.3383 -102.5231 253° West 127 146 8,400  Level Houston Center
11:20AM 30.3283 -102.5625 254° West 127 146 8,400  Level Albuquerque Center
11:22AM 30.3103 -102.6315 253° West  Level FlightAware Approximate
11:29AM 30.2334 -102.9238 253° West  Level FlightAware Approximate
11:30AM 30.2224 -102.9655 253° West  Level FlightAware Approximate
11:31AM 30.2114 -103.0072 253° West  Level FlightAware Approximate
11:32AM 30.2003 -103.0489 253° West  Level FlightAware Approximate
11:33AM 30.1894 -103.0907 253° West  Level FlightAware Approximate
11:34AM 30.1785 -103.1324 253° West  Level FlightAware Approximate
11:35AM 30.1676 -103.1742 253° West  Level FlightAware Approximate
11:36AM 30.1567 -103.2159 253° West  Level FlightAware Approximate
11:37AM 30.1458 -103.2576 253° West  Level FlightAware Approximate
11:38AM 30.1348 -103.2993 253° West  Level FlightAware Approximate
11:39AM 30.1239 -103.3410 253° West  Level FlightAware Approximate
11:40AM 30.1129 -103.3828 253° West  Level FlightAware Approximate
11:41AM 30.1019 -103.4244 253° West  Level FlightAware Approximate
11:42AM 30.0910 -103.4661 253° West  Level FlightAware Approximate
11:43AM 30.0800 -103.5078 253° West  Level FlightAware Approximate
11:44AM 30.0689 -103.5495 253° West  Level FlightAware Approximate
11:45AM 30.0579 -103.5911 253° West  Level FlightAware Approximate
11:46AM 30.0469 -103.6327 253° West  Level FlightAware Approximate
11:47AM 30.0358 -103.6744 253° West  Level FlightAware Approximate
11:48AM 30.0247 -103.7160 253° West  Level FlightAware Approximate
11:49AM 30.0137 -103.7576 253° West  Level FlightAware Approximate
11:50AM 30.0026 -103.7992 253° West  Level FlightAware Approximate
11:51AM 29.9914 -103.8408 253° West  Level FlightAware Approximate
11:52AM 29.9803 -103.8824 253° West  Level FlightAware Approximate
11:53AM 29.9692 -103.9239 253° West  Level FlightAware Approximate
11:54AM 29.9590 -103.9659 255° West  Level FlightAware Approximate
11:55AM 29.9492 -104.0079 255° West  Level FlightAware Approximate
11:56AM 29.9393 -104.0499 255° West  Level FlightAware Approximate
11:57AM 29.9295 -104.0918 255° West  Level FlightAware Approximate
11:58AM 29.9196 -104.1338 255° West  Level FlightAware Approximate
11:59AM 29.9097 -104.1758 255° West  Level FlightAware Approximate
12:00PM 29.8995 -104.2176 240° Southwest  Level FlightAware Approximate
12:01PM 29.8833 -104.2500 240° Southwest  Level FlightAware Approximate
12:02PM 29.8930 -104.2616 240° Southwest  Level Estimated
12:03PM 29.8930 -104.2616 240° Southwest  Level Estimated
12:04PM 29.8930 -104.2616 240° Southwest  Level Estimated
12:05PM 29.8930 -104.2616 240° Southwest  Level Estimated
12:06PM 29.8930 -104.2616 240° Southwest  Level Estimated
12:07PM 29.8930 -104.2616 240° Southwest  Level Estimated
12:08PM 29.8930 -104.2616 240° Southwest  Level Estimated
12:09PM 29.8930 -104.2616 240° Southwest  Level Estimated
12:10PM 29.8930 -104.2616 240° Southwest  Level Estimated
12:11PM 29.8930 -104.2616 240° Southwest  Level Estimated
12:12PM 29.8930 -104.2616 240° Southwest  Level Estimated
12:13PM 29.8930 -104.2616 240° Southwest  Level Estimated
12:14PM 29.8930 -104.2616 240° Southwest  Level Estimated
12:15PM 29.8930 -104.2616 240° Southwest  Level Estimated
12:16PM 29.8930 -104.2616 240° Southwest  Level Estimated
12:17PM 29.8930 -104.2616 240° Southwest  Level Estimated
12:18PM 29.8930 -104.2616 240° Southwest  Level Estimated
12:19PM 29.8930 -104.2616 240° Southwest  Level Estimated
12:20PM 29.8930 -104.2616 240° Southwest  Level Estimated
12:21PM 29.8930 -104.2616 240° Southwest  Level Estimated
12:22PM 29.8930 -104.2616 240° Southwest  Level Estimated
12:23PM 29.8930 -104.2616 240° Southwest  Level Estimated